Time;durP1;ratioP1;P1;durP2;ratioP2;P2;SDS_P1;SDS_P2;PMS_P1;PMS_P2;Temp;Humidity;BMP_temperature;BMP_pressure;BME280_temperature;BME280_humidity;BME280_pressure;Samples;Min_cycle;Max_cycle;Signal;HPM_P1;HPM_P2
2023/12/15 00:00:44;;;;;;;8.85;2.58;;;;;;;;;;5020601;27;92581;-82
2023/12/15 00:03:11;;;;;;;6.35;2.13;;;;;;;;;;5020735;27;92654;-79
2023/12/15 00:05:39;;;;;;;9.63;2.53;;;;;;;;;;5014361;27;94482;-81
2023/12/15 00:08:10;;;;;;;12.15;2.22;;;;;;;;;;5014756;28;99565;-81
2023/12/15 00:10:38;;;;;;;11.88;2.60;;;;;;;;;;5023930;28;94975;-82
2023/12/15 00:13:06;;;;;;;9.85;2.45;;;;;;;;;;5021061;28;92529;-83
2023/12/15 00:15:38;;;;;;;9.07;2.47;;;;;;;;;;4998584;28;94854;-84
2023/12/15 00:18:09;;;;;;;8.00;2.60;;;;;;;;;;5008242;28;93632;-83
2023/12/15 00:20:36;;;;;;;;;;;;;;;;;;4983721;28;94827;-83
2023/12/15 00:23:04;;;;;;;9.00;2.55;;;;;;;;;;5013532;28;92533;-82
2023/12/15 00:25:31;;;;;;;14.52;2.67;;;;;;;;;;5001586;28;92322;-83
2023/12/15 00:28:01;;;;;;;6.90;2.70;;;;;;;;;;4999001;28;92869;-83
2023/12/15 00:30:28;;;;;;;6.78;2.50;;;;;;;;;;4997778;28;97969;-82
2023/12/15 00:33:00;;;;;;;8.77;3.10;;;;;;;;;;4989446;28;93042;-82
2023/12/15 00:35:27;;;;;;;9.45;3.00;;;;;;;;;;4999232;28;94048;-84
2023/12/15 00:37:55;;;;;;;7.45;2.95;;;;;;;;;;4983482;28;92539;-84
2023/12/15 00:40:23;;;;;;;8.82;2.90;;;;;;;;;;4986688;28;95318;-83
2023/12/15 00:42:50;;;;;;;11.70;3.05;;;;;;;;;;5017048;28;93166;-83
2023/12/15 00:45:17;;;;;;;7.53;3.22;;;;;;;;;;5018831;28;92993;-84
2023/12/15 00:47:45;;;;;;;;;;;;;;;;;;5002120;28;95471;-84
2023/12/15 00:50:12;;;;;;;8.43;3.20;;;;;;;;;;5010656;28;93185;-84
2023/12/15 00:52:39;;;;;;;7.45;3.13;;;;;;;;;;5018972;28;92498;-82
2023/12/15 00:55:07;;;;;;;8.57;3.17;;;;;;;;;;5003612;28;94474;-82
2023/12/15 00:57:36;;;;;;;10.13;3.63;;;;;;;;;;5019564;28;92352;-83
2023/12/15 01:00:10;;;;;;;8.35;3.20;;;;;;;;;;5008511;28;92588;-83
2023/12/15 01:02:37;;;;;;;8.25;3.38;;;;;;;;;;5001560;28;92522;-82
2023/12/15 01:05:05;;;;;;;9.13;3.42;;;;;;;;;;5031539;28;92197;-83
2023/12/15 01:07:32;;;;;;;7.93;3.50;;;;;;;;;;5019092;28;95601;-82
2023/12/15 01:09:59;;;;;;;8.63;3.45;;;;;;;;;;5003452;27;93951;-84
2023/12/15 01:12:26;;;;;;;8.73;3.58;;;;;;;;;;5035527;27;91452;-84
2023/12/15 01:15:07;;;;;;;9.25;3.63;;;;;;;;;;5019317;28;92458;-85
2023/12/15 01:17:50;;;;;;;8.48;3.85;;;;;;;;;;5028329;27;95524;-85
2023/12/15 01:20:27;;;;;;;9.07;3.40;;;;;;;;;;5018327;28;94684;-85
2023/12/15 01:22:54;;;;;;;;;;;;;;;;;;5017122;27;95436;-83
2023/12/15 01:25:28;;;;;;;8.80;3.53;;;;;;;;;;5011118;27;92409;-83
2023/12/15 01:28:00;;;;;;;10.35;4.10;;;;;;;;;;5028746;27;92746;-82
2023/12/15 01:30:29;;;;;;;8.80;4.00;;;;;;;;;;5019902;28;93703;-84
2023/12/15 01:32:57;;;;;;;8.95;3.80;;;;;;;;;;5021506;28;92059;-84
2023/12/15 01:35:26;;;;;;;11.57;3.88;;;;;;;;;;5013793;28;94652;-82
2023/12/15 01:37:58;;;;;;;10.88;3.88;;;;;;;;;;5042958;27;92277;-82
2023/12/15 01:40:28;;;;;;;9.77;4.40;;;;;;;;;;5021702;28;92316;-83
2023/12/15 01:42:57;;;;;;;10.45;3.83;;;;;;;;;;5010229;28;95146;-84
2023/12/15 01:45:25;;;;;;;10.55;4.70;;;;;;;;;;5035410;27;94661;-83
2023/12/15 01:47:52;;;;;;;9.55;4.13;;;;;;;;;;5038194;27;98147;-82
2023/12/15 01:50:19;;;;;;;;;;;;;;;;;;5040978;27;92972;-83
2023/12/15 01:52:47;;;;;;;11.52;4.85;;;;;;;;;;5039637;27;92238;-83
2023/12/15 01:55:14;;;;;;;10.93;4.70;;;;;;;;;;5037175;27;95388;-83
2023/12/15 01:57:42;;;;;;;14.32;4.38;;;;;;;;;;5036506;27;92757;-85
2023/12/15 02:00:09;;;;;;;9.35;4.38;;;;;;;;;;5025601;28;92280;-84
2023/12/15 02:02:42;;;;;;;11.02;4.60;;;;;;;;;;5030093;27;94832;-85
2023/12/15 02:05:18;;;;;;;12.95;4.60;;;;;;;;;;5028482;28;92234;-82
2023/12/15 02:07:46;;;;;;;12.82;5.03;;;;;;;;;;4997866;28;93294;-83
2023/12/15 02:10:14;;;;;;;11.75;4.55;;;;;;;;;;4998948;28;98311;-83
2023/12/15 02:12:41;;;;;;;10.82;4.93;;;;;;;;;;5017333;28;92645;-83
2023/12/15 02:15:18;;;;;;;10.60;4.80;;;;;;;;;;5018080;28;95580;-84
2023/12/15 02:17:45;;;;;;;13.68;5.22;;;;;;;;;;5018756;28;92887;-83
2023/12/15 02:20:16;;;;;;;10.45;4.97;;;;;;;;;;5017041;28;92249;-83
2023/12/15 02:22:44;;;;;;;14.20;5.28;;;;;;;;;;5022973;28;92479;-84
2023/12/15 02:25:15;;;;;;;10.05;4.50;;;;;;;;;;5019889;28;92419;-83
2023/12/15 02:27:42;;;;;;;11.27;5.20;;;;;;;;;;4998363;28;94628;-83
2023/12/15 02:30:09;;;;;;;11.50;5.47;;;;;;;;;;5016618;28;92547;-83
2023/12/15 02:32:39;;;;;;;15.75;5.10;;;;;;;;;;5017709;28;92115;-84
2023/12/15 02:35:14;;;;;;;10.32;5.10;;;;;;;;;;5000254;28;94385;-83
2023/12/15 02:37:48;;;;;;;12.77;5.45;;;;;;;;;;5011909;28;93189;-84
2023/12/15 02:40:18;;;;;;;13.45;5.22;;;;;;;;;;4998083;28;92604;-82
2023/12/15 02:42:48;;;;;;;12.25;5.30;;;;;;;;;;5015383;27;93056;-83
2023/12/15 02:45:15;;;;;;;12.48;5.60;;;;;;;;;;5019788;27;95582;-83
2023/12/15 02:47:42;;;;;;;11.80;5.32;;;;;;;;;;4996327;27;95001;-84
2023/12/15 02:50:20;;;;;;;11.40;5.43;;;;;;;;;;5023510;27;94080;-81
2023/12/15 02:52:51;;;;;;;14.07;5.85;;;;;;;;;;5021238;28;91694;-83
2023/12/15 02:55:18;;;;;;;13.63;5.28;;;;;;;;;;5038360;27;93946;-83
2023/12/15 02:57:45;;;;;;;14.48;5.38;;;;;;;;;;5038607;27;94564;-83
2023/12/15 03:00:16;;;;;;;13.80;5.80;;;;;;;;;;5031157;27;94961;-82
2023/12/15 03:02:57;;;;;;;11.60;5.55;;;;;;;;;;5021518;28;95643;-83
2023/12/15 03:05:31;;;;;;;12.68;5.68;;;;;;;;;;5038314;27;92685;-83
2023/12/15 03:08:09;;;;;;;15.82;6.13;;;;;;;;;;5001672;28;93700;-83
2023/12/15 03:10:51;;;;;;;15.93;5.70;;;;;;;;;;5022257;28;95668;-83
2023/12/15 03:13:25;;;;;;;13.00;5.78;;;;;;;;;;5023135;28;92167;-84
2023/12/15 03:16:08;;;;;;;13.57;6.13;;;;;;;;;;5017085;28;95469;-84
2023/12/15 03:18:50;;;;;;;11.07;5.57;;;;;;;;;;5019066;28;92223;-84
2023/12/15 03:21:29;;;;;;;12.63;5.30;;;;;;;;;;5000452;28;92704;-83
2023/12/15 03:24:06;;;;;;;17.85;6.30;;;;;;;;;;4996299;28;97470;-83
2023/12/15 03:26:34;;;;;;;12.82;5.80;;;;;;;;;;5002750;28;98639;-84
2023/12/15 03:29:16;;;;;;;14.77;6.07;;;;;;;;;;4997903;28;92444;-84
2023/12/15 03:31:44;;;;;;;14.32;6.05;;;;;;;;;;5019920;28;92157;-83
2023/12/15 03:34:14;;;;;;;10.95;5.60;;;;;;;;;;5019519;28;92274;-85
2023/12/15 03:36:53;;;;;;;14.10;6.43;;;;;;;;;;5020843;28;94801;-84
2023/12/15 03:39:25;;;;;;;13.38;5.65;;;;;;;;;;4999159;28;95473;-81
2023/12/15 03:41:56;;;;;;;13.88;6.13;;;;;;;;;;4995028;28;92688;-81
2023/12/15 03:44:27;;;;;;;15.40;5.95;;;;;;;;;;4998177;28;94091;-82
2023/12/15 03:46:58;;;;;;;13.88;5.80;;;;;;;;;;4990801;28;95837;-82
2023/12/15 03:49:25;;;;;;;14.07;5.88;;;;;;;;;;4988503;28;92268;-82
2023/12/15 03:51:56;;;;;;;15.88;6.20;;;;;;;;;;5001585;28;95284;-80
2023/12/15 03:54:24;;;;;;;14.05;6.10;;;;;;;;;;5005821;28;93541;-80
2023/12/15 03:57:02;;;;;;;13.45;6.25;;;;;;;;;;5004559;28;92387;-80
2023/12/15 03:59:30;;;;;;;13.13;5.95;;;;;;;;;;5004577;28;93515;-82
2023/12/15 04:01:58;;;;;;;12.57;5.80;;;;;;;;;;5019005;27;92057;-82
2023/12/15 04:04:25;;;;;;;12.73;6.05;;;;;;;;;;5015988;28;95129;-81
2023/12/15 04:06:54;;;;;;;13.32;5.93;;;;;;;;;;5020622;28;93212;-81
2023/12/15 04:09:24;;;;;;;13.02;6.13;;;;;;;;;;5020341;28;91670;-81
2023/12/15 04:11:51;;;;;;;13.90;6.05;;;;;;;;;;5020630;28;92209;-81
2023/12/15 04:14:18;;;;;;;12.75;6.18;;;;;;;;;;5024971;28;93853;-80
2023/12/15 04:16:45;;;;;;;11.85;6.15;;;;;;;;;;5019730;28;94490;-81
2023/12/15 04:19:13;;;;;;;12.32;6.25;;;;;;;;;;5001651;28;95472;-81
2023/12/15 04:21:49;;;;;;;13.55;6.53;;;;;;;;;;5018964;28;92375;-81
2023/12/15 04:24:17;;;;;;;17.38;6.50;;;;;;;;;;5020552;28;94535;-82
2023/12/15 04:26:49;;;;;;;14.30;6.43;;;;;;;;;;5017482;28;92128;-82
2023/12/15 04:29:26;;;;;;;14.48;6.78;;;;;;;;;;5004901;28;92157;-82
2023/12/15 04:31:53;;;;;;;;;;;;;;;;;;5018168;27;93002;-83
2023/12/15 04:34:22;;;;;;;15.43;6.20;;;;;;;;;;5021084;28;95584;-83
2023/12/15 04:36:50;;;;;;;15.10;6.82;;;;;;;;;;5024355;28;92134;-83
2023/12/15 04:39:22;;;;;;;15.27;7.03;;;;;;;;;;5020940;27;92451;-83
2023/12/15 04:41:52;;;;;;;12.50;6.72;;;;;;;;;;4989285;28;94911;-82
2023/12/15 04:44:19;;;;;;;12.45;6.03;;;;;;;;;;5020128;28;94740;-82
2023/12/15 04:46:50;;;;;;;14.10;6.43;;;;;;;;;;5011579;28;92677;-81
2023/12/15 04:49:18;;;;;;;12.75;6.50;;;;;;;;;;5001991;28;92206;-83
2023/12/15 04:51:48;;;;;;;20.92;6.80;;;;;;;;;;5016676;27;93891;-83
2023/12/15 04:54:18;;;;;;;14.82;6.68;;;;;;;;;;5017664;28;94897;-83
2023/12/15 04:56:45;;;;;;;11.57;5.88;;;;;;;;;;5018007;27;92048;-82
2023/12/15 04:59:12;;;;;;;12.43;6.28;;;;;;;;;;5020530;27;92430;-82
2023/12/15 05:01:40;;;;;;;11.48;5.57;;;;;;;;;;5016218;28;92231;-82
2023/12/15 05:04:07;;;;;;;12.88;5.70;;;;;;;;;;5018037;28;97031;-82
2023/12/15 05:06:34;;;;;;;14.10;5.70;;;;;;;;;;5015480;28;97015;-82
2023/12/15 05:09:04;;;;;;;12.80;5.65;;;;;;;;;;5018273;28;92686;-82
2023/12/15 05:11:35;;;;;;;12.65;5.88;;;;;;;;;;5020939;28;94046;-82
2023/12/15 05:14:02;;;;;;;12.05;5.47;;;;;;;;;;5018120;28;92825;-82
2023/12/15 05:16:29;;;;;;;13.32;5.53;;;;;;;;;;5003333;28;92225;-82
2023/12/15 05:18:56;;;;;;;13.68;5.80;;;;;;;;;;5020243;28;93082;-83
2023/12/15 05:21:24;;;;;;;11.93;5.43;;;;;;;;;;5023402;28;92925;-82
2023/12/15 05:23:53;;;;;;;10.55;4.95;;;;;;;;;;5014072;28;93076;-82
2023/12/15 05:26:22;;;;;;;11.20;5.70;;;;;;;;;;5015792;28;92853;-82
2023/12/15 05:28:49;;;;;;;10.52;5.07;;;;;;;;;;5019476;28;92433;-83
2023/12/15 05:31:19;;;;;;;11.70;5.13;;;;;;;;;;5016420;28;94828;-83
2023/12/15 05:33:50;;;;;;;9.60;5.10;;;;;;;;;;5014567;28;93110;-83
2023/12/15 05:36:33;;;;;;;11.90;5.07;;;;;;;;;;5021124;28;92377;-83
2023/12/15 05:39:04;;;;;;;11.35;5.32;;;;;;;;;;5002204;28;93623;-83
2023/12/15 05:41:40;;;;;;;10.35;5.35;;;;;;;;;;5019530;27;92657;-84
2023/12/15 05:44:11;;;;;;;12.18;5.68;;;;;;;;;;5002553;28;93626;-84
2023/12/15 05:46:41;;;;;;;11.70;5.35;;;;;;;;;;4999132;28;95353;-83
2023/12/15 05:49:17;;;;;;;10.52;5.05;;;;;;;;;;4999558;28;91472;-84
2023/12/15 05:51:47;;;;;;;12.40;4.90;;;;;;;;;;4995258;27;93883;-83
2023/12/15 05:54:14;;;;;;;11.13;5.10;;;;;;;;;;4997296;28;95016;-84
2023/12/15 05:56:42;;;;;;;10.55;5.00;;;;;;;;;;4988771;28;94703;-81
2023/12/15 05:59:09;;;;;;;10.80;4.97;;;;;;;;;;4999221;28;97471;-82
2023/12/15 06:01:36;;;;;;;;;;;;;;;;;;4999083;28;95501;-82
2023/12/15 06:04:04;;;;;;;10.57;4.30;;;;;;;;;;5013024;28;92073;-82
2023/12/15 06:06:38;;;;;;;9.82;4.72;;;;;;;;;;4988390;28;95367;-82
2023/12/15 06:09:15;;;;;;;10.00;4.50;;;;;;;;;;4959229;28;92480;-82
2023/12/15 06:11:46;;;;;;;10.00;4.53;;;;;;;;;;4990014;28;93909;-82
2023/12/15 06:14:13;;;;;;;9.57;4.93;;;;;;;;;;4972924;28;96111;-82
2023/12/15 06:16:40;;;;;;;9.23;4.55;;;;;;;;;;5010075;28;92464;-81
2023/12/15 06:19:07;;;;;;;10.40;4.85;;;;;;;;;;5000112;28;92934;-82
2023/12/15 06:21:37;;;;;;;10.57;4.47;;;;;;;;;;4997420;28;97643;-82
2023/12/15 06:24:04;;;;;;;10.45;4.47;;;;;;;;;;5000064;28;92305;-82
2023/12/15 06:26:31;;;;;;;9.57;4.28;;;;;;;;;;4978593;28;95305;-82
2023/12/15 06:28:58;;;;;;;9.70;4.20;;;;;;;;;;4991310;28;92215;-81
2023/12/15 06:31:29;;;;;;;9.05;4.03;;;;;;;;;;4996870;28;95948;-83
2023/12/15 06:34:01;;;;;;;9.25;4.10;;;;;;;;;;4978326;28;95453;-82
2023/12/15 06:36:29;;;;;;;10.32;4.32;;;;;;;;;;4982549;28;92514;-83
2023/12/15 06:38:59;;;;;;;9.18;3.80;;;;;;;;;;4992408;28;94859;-82
2023/12/15 06:41:33;;;;;;;12.27;4.25;;;;;;;;;;4996544;28;93155;-84
2023/12/15 06:44:05;;;;;;;9.90;4.00;;;;;;;;;;5015198;27;92439;-81
2023/12/15 06:46:36;;;;;;;9.30;3.70;;;;;;;;;;5000710;28;95149;-82
2023/12/15 06:49:03;;;;;;;11.88;4.20;;;;;;;;;;5024727;28;92674;-83
2023/12/15 06:51:31;;;;;;;10.50;4.07;;;;;;;;;;5023295;28;92571;-82
2023/12/15 06:54:02;;;;;;;9.43;3.85;;;;;;;;;;5010036;27;93055;-82
2023/12/15 06:56:30;;;;;;;12.77;4.35;;;;;;;;;;5005010;28;92273;-84
2023/12/15 06:59:03;;;;;;;8.85;3.80;;;;;;;;;;5019854;28;93389;-82
2023/12/15 07:01:32;;;;;;;10.55;3.83;;;;;;;;;;5005192;28;95318;-82
2023/12/15 07:04:00;;;;;;;8.93;3.80;;;;;;;;;;5016660;28;91533;-83
2023/12/15 07:06:32;;;;;;;9.50;3.75;;;;;;;;;;4989813;28;92339;-83
2023/12/15 07:09:00;;;;;;;8.45;3.60;;;;;;;;;;4999748;28;92987;-83
2023/12/15 07:11:28;;;;;;;9.52;3.75;;;;;;;;;;5001912;28;95045;-84
2023/12/15 07:13:57;;;;;;;10.73;3.92;;;;;;;;;;4982784;28;94959;-87
2023/12/15 07:16:24;;;;;;;9.90;3.83;;;;;;;;;;5001372;28;92476;-83
2023/12/15 07:18:52;;;;;;;7.85;3.45;;;;;;;;;;5004259;28;92139;-84
2023/12/15 07:21:23;;;;;;;9.15;3.65;;;;;;;;;;4998451;28;93085;-84
2023/12/15 07:23:51;;;;;;;9.48;3.50;;;;;;;;;;4996272;28;92224;-83
2023/12/15 07:26:26;;;;;;;9.40;3.70;;;;;;;;;;4997963;28;93091;-85
2023/12/15 07:29:24;;;;;;;;;;;;;;;;;;5000034;28;93952;-84
2023/12/15 07:32:23;;;;;;;12.40;3.95;;;;;;;;;;5002779;28;94311;-82
2023/12/15 07:34:51;;;;;;;11.05;3.95;;;;;;;;;;5003588;28;95486;-80
2023/12/15 07:37:23;;;;;;;12.05;3.47;;;;;;;;;;5001357;28;97665;-82
2023/12/15 07:40:03;;;;;;;10.07;3.63;;;;;;;;;;4992407;27;97233;-82
2023/12/15 07:42:31;;;;;;;8.93;3.30;;;;;;;;;;5000849;28;93646;-81
2023/12/15 07:45:08;;;;;;;8.07;3.10;;;;;;;;;;5001539;28;93048;-81
2023/12/15 07:47:36;;;;;;;8.77;2.97;;;;;;;;;;5001283;28;93131;-82
2023/12/15 07:50:10;;;;;;;10.32;3.10;;;;;;;;;;4986347;28;97903;-81
2023/12/15 07:52:41;;;;;;;12.50;3.05;;;;;;;;;;5002431;28;92396;-81
2023/12/15 07:55:11;;;;;;;7.38;3.00;;;;;;;;;;4993950;28;94214;-80
2023/12/15 07:57:39;;;;;;;10.25;3.22;;;;;;;;;;4993175;28;93960;-81
2023/12/15 08:00:11;;;;;;;6.85;2.63;;;;;;;;;;5035518;27;99051;-80
2023/12/15 08:02:41;;;;;;;6.85;2.40;;;;;;;;;;5016332;28;98240;-82
2023/12/15 08:05:09;;;;;;;7.60;2.67;;;;;;;;;;5017181;28;92639;-82
2023/12/15 08:07:40;;;;;;;6.38;2.40;;;;;;;;;;4999078;28;94652;-81
2023/12/15 08:10:10;;;;;;;8.45;2.40;;;;;;;;;;5017614;28;99948;-82
2023/12/15 08:12:42;;;;;;;7.10;2.50;;;;;;;;;;5020381;28;92121;-82
2023/12/15 08:15:12;;;;;;;5.97;2.30;;;;;;;;;;5021610;28;92849;-81
2023/12/15 08:17:40;;;;;;;7.80;2.67;;;;;;;;;;5002032;28;95596;-84
2023/12/15 08:20:07;;;;;;;5.40;2.22;;;;;;;;;;5021447;28;91636;-82
2023/12/15 08:22:35;;;;;;;5.63;2.45;;;;;;;;;;5019250;28;95462;-82
2023/12/15 08:25:01;;;;;;;;;;;;;;;;;;5022576;28;92226;-82
2023/12/15 08:27:29;;;;;;;6.75;2.40;;;;;;;;;;5020721;28;95313;-82
2023/12/15 08:29:57;;;;;;;6.07;2.20;;;;;;;;;;5020332;28;92971;-82
2023/12/15 08:32:23;;;;;;;7.93;2.22;;;;;;;;;;5014104;28;92244;-82
2023/12/15 08:34:53;;;;;;;10.27;2.60;;;;;;;;;;5020655;28;92494;-84
2023/12/15 08:37:20;;;;;;;5.45;1.90;;;;;;;;;;5019396;28;92795;-83
2023/12/15 08:39:49;;;;;;;7.05;2.00;;;;;;;;;;5016114;27;92249;-84
2023/12/15 08:42:16;;;;;;;7.28;1.80;;;;;;;;;;4998019;28;95075;-81
2023/12/15 08:44:43;;;;;;;6.95;2.20;;;;;;;;;;5002522;28;91721;-82
2023/12/15 08:47:11;;;;;;;6.00;2.08;;;;;;;;;;5017244;27;93401;-82
2023/12/15 08:49:38;;;;;;;4.95;2.03;;;;;;;;;;4998606;28;92732;-80
2023/12/15 08:52:05;;;;;;;5.40;2.00;;;;;;;;;;4998065;27;94810;-81
2023/12/15 08:54:31;;;;;;;4.72;1.90;;;;;;;;;;5009201;28;94627;-81
2023/12/15 08:56:58;;;;;;;6.72;2.00;;;;;;;;;;5009724;28;95247;-86
2023/12/15 08:59:26;;;;;;;8.13;2.28;;;;;;;;;;5001394;28;92567;-80
2023/12/15 09:01:55;;;;;;;8.18;2.22;;;;;;;;;;5014072;28;93371;-81
2023/12/15 09:04:22;;;;;;;8.32;2.33;;;;;;;;;;5004677;28;92207;-81
2023/12/15 09:06:49;;;;;;;7.93;2.28;;;;;;;;;;5020207;28;94646;-79
2023/12/15 09:09:21;;;;;;;8.73;2.22;;;;;;;;;;5020217;28;93081;-80
2023/12/15 09:11:49;;;;;;;6.85;2.20;;;;;;;;;;5019249;28;92177;-80
2023/12/15 09:14:21;;;;;;;6.85;2.03;;;;;;;;;;5021191;28;92049;-82
2023/12/15 09:16:48;;;;;;;6.82;1.95;;;;;;;;;;4980835;28;98034;-79
2023/12/15 09:19:15;;;;;;;6.70;2.10;;;;;;;;;;4979812;28;93339;-85
2023/12/15 09:21:42;;;;;;;8.50;2.40;;;;;;;;;;5001285;27;95220;-78
2023/12/15 09:24:09;;;;;;;7.57;2.20;;;;;;;;;;5003353;28;94969;-79
2023/12/15 09:26:38;;;;;;;7.10;2.35;;;;;;;;;;4998936;28;92384;-81
2023/12/15 09:29:05;;;;;;;8.15;2.25;;;;;;;;;;4997721;28;93273;-80
2023/12/15 09:31:33;;;;;;;6.88;2.20;;;;;;;;;;5002181;28;92355;-80
2023/12/15 09:34:03;;;;;;;6.80;2.13;;;;;;;;;;5000994;28;92145;-80
2023/12/15 09:36:29;;;;;;;;;;;;;;;;;;5001060;28;93661;-80
2023/12/15 09:38:57;;;;;;;6.72;2.33;;;;;;;;;;5003989;28;92045;-81
2023/12/15 09:41:28;;;;;;;5.72;1.98;;;;;;;;;;4997582;28;94501;-82
2023/12/15 09:43:55;;;;;;;5.68;2.03;;;;;;;;;;4992156;28;92265;-82
2023/12/15 09:46:21;;;;;;;;;;;;;;;;;;5005412;27;92091;-83
2023/12/15 09:48:49;;;;;;;8.48;2.30;;;;;;;;;;5013865;28;94108;-81
2023/12/15 09:51:22;;;;;;;7.22;2.05;;;;;;;;;;5007190;28;92158;-81
2023/12/15 09:53:53;;;;;;;5.60;2.03;;;;;;;;;;5018378;27;92385;-82
2023/12/15 09:56:20;;;;;;;5.78;2.05;;;;;;;;;;5019496;27;94335;-82
2023/12/15 09:58:47;;;;;;;;;;;;;;;;;;5020162;27;91561;-82
2023/12/15 10:01:14;;;;;;;8.55;2.15;;;;;;;;;;5021651;27;92390;-82
2023/12/15 10:03:41;;;;;;;6.68;1.92;;;;;;;;;;5015330;27;95535;-81
2023/12/15 10:06:08;;;;;;;6.63;1.92;;;;;;;;;;4996816;28;94684;-79
2023/12/15 10:08:39;;;;;;;7.13;2.20;;;;;;;;;;4998894;28;94750;-81
2023/12/15 10:11:24;;;;;;;7.47;2.15;;;;;;;;;;4999624;28;92079;-82
2023/12/15 10:13:51;;;;;;;7.20;2.03;;;;;;;;;;4999919;28;92544;-81
2023/12/15 10:16:18;;;;;;;7.30;1.90;;;;;;;;;;5000229;28;92510;-80
2023/12/15 10:18:47;;;;;;;8.98;1.90;;;;;;;;;;4987913;28;92277;-80
2023/12/15 10:21:15;;;;;;;6.60;2.30;;;;;;;;;;4987881;28;92405;-81
2023/12/15 10:23:42;;;;;;;6.90;2.05;;;;;;;;;;4980554;28;91989;-81
2023/12/15 10:26:09;;;;;;;6.00;2.10;;;;;;;;;;4995043;28;92087;-80
2023/12/15 10:28:38;;;;;;;6.57;2.00;;;;;;;;;;4982724;28;95185;-82
2023/12/15 10:31:09;;;;;;;6.03;1.90;;;;;;;;;;5006657;28;94764;-84
2023/12/15 10:33:41;;;;;;;7.93;2.08;;;;;;;;;;4996327;28;95178;-83
2023/12/15 10:36:08;;;;;;;6.72;2.28;;;;;;;;;;5014305;28;98038;-84
2023/12/15 10:38:36;;;;;;;7.25;1.92;;;;;;;;;;4996362;28;92211;-82
2023/12/15 10:41:03;;;;;;;7.57;2.08;;;;;;;;;;5011945;28;95456;-81
2023/12/15 10:43:30;;;;;;;6.95;2.08;;;;;;;;;;4994384;28;97056;-81
2023/12/15 10:45:58;;;;;;;6.82;1.90;;;;;;;;;;5011959;27;92404;-81
2023/12/15 10:48:30;;;;;;;6.10;2.15;;;;;;;;;;5000761;28;92324;-82
2023/12/15 10:50:59;;;;;;;10.10;2.10;;;;;;;;;;4999364;28;92709;-83
2023/12/15 10:53:26;;;;;;;8.88;2.20;;;;;;;;;;4997570;28;92917;-82
2023/12/15 10:55:54;;;;;;;7.82;2.50;;;;;;;;;;4993217;28;95727;-81
2023/12/15 10:58:21;;;;;;;6.30;1.95;;;;;;;;;;5001720;28;92391;-82
2023/12/15 11:00:49;;;;;;;6.20;2.10;;;;;;;;;;5008735;28;95465;-81
2023/12/15 11:03:16;;;;;;;6.55;1.83;;;;;;;;;;4997070;28;93363;-81
2023/12/15 11:05:45;;;;;;;6.70;2.03;;;;;;;;;;5007227;28;92792;-82
2023/12/15 11:08:14;;;;;;;7.47;2.28;;;;;;;;;;4995702;28;92390;-81
2023/12/15 11:10:42;;;;;;;7.50;2.00;;;;;;;;;;4997266;28;93715;-81
2023/12/15 11:13:28;;;;;;;4.97;1.90;;;;;;;;;;5002722;28;91513;-81
2023/12/15 11:15:57;;;;;;;6.00;2.00;;;;;;;;;;4990403;28;93208;-82
2023/12/15 11:18:26;;;;;;;6.38;2.10;;;;;;;;;;4984756;28;92284;-81
2023/12/15 11:20:53;;;;;;;6.95;2.08;;;;;;;;;;4997031;28;94816;-81
2023/12/15 11:23:20;;;;;;;7.88;2.00;;;;;;;;;;5000643;28;92370;-81
2023/12/15 11:25:49;;;;;;;7.53;2.20;;;;;;;;;;4982534;28;92385;-82
2023/12/15 11:28:17;;;;;;;7.95;1.85;;;;;;;;;;5002564;28;92524;-82
2023/12/15 11:30:48;;;;;;;7.13;1.83;;;;;;;;;;5002584;28;93740;-82
2023/12/15 11:33:28;;;;;;;7.07;2.05;;;;;;;;;;5003329;28;92131;-82
2023/12/15 11:35:59;;;;;;;6.15;1.70;;;;;;;;;;4970235;28;95535;-82
2023/12/15 11:38:26;;;;;;;8.48;2.10;;;;;;;;;;5004739;28;91376;-82
2023/12/15 11:40:53;;;;;;;6.70;2.20;;;;;;;;;;5002292;28;91989;-83
2023/12/15 11:43:20;;;;;;;7.40;2.00;;;;;;;;;;5002596;28;93036;-81
2023/12/15 11:45:50;;;;;;;7.68;2.13;;;;;;;;;;4998412;28;94578;-82
2023/12/15 11:48:17;;;;;;;5.40;1.83;;;;;;;;;;5003369;28;95297;-82
2023/12/15 11:50:45;;;;;;;7.10;1.98;;;;;;;;;;5026509;28;93268;-82
2023/12/15 11:53:13;;;;;;;5.53;2.20;;;;;;;;;;5009016;28;92667;-81
2023/12/15 11:55:49;;;;;;;6.85;2.13;;;;;;;;;;5030760;28;92398;-83
2023/12/15 11:58:18;;;;;;;7.85;2.20;;;;;;;;;;5010830;28;92611;-82
2023/12/15 12:00:46;;;;;;;6.93;2.20;;;;;;;;;;5011885;28;94369;-82
2023/12/15 12:03:16;;;;;;;7.22;2.17;;;;;;;;;;5013374;28;94306;-82
2023/12/15 12:05:53;;;;;;;6.05;2.03;;;;;;;;;;4998395;28;92481;-82
2023/12/15 12:08:22;;;;;;;5.68;2.05;;;;;;;;;;5002491;28;92536;-82
2023/12/15 12:10:50;;;;;;;8.10;2.10;;;;;;;;;;5001941;28;95121;-82
2023/12/15 12:13:17;;;;;;;6.30;2.00;;;;;;;;;;5000380;28;92946;-82
2023/12/15 12:16:03;;;;;;;8.88;1.90;;;;;;;;;;5001999;28;92947;-82
2023/12/15 12:18:31;;;;;;;6.93;1.83;;;;;;;;;;5002571;28;92741;-82
2023/12/15 12:21:04;;;;;;;6.72;2.15;;;;;;;;;;4987573;28;92264;-82
2023/12/15 12:23:32;;;;;;;5.60;1.77;;;;;;;;;;5001123;28;94649;-82
2023/12/15 12:26:12;;;;;;;7.80;2.20;;;;;;;;;;4984342;28;92855;-82
2023/12/15 12:28:50;;;;;;;5.55;1.90;;;;;;;;;;4985666;28;94977;-82
2023/12/15 12:31:18;;;;;;;6.03;1.85;;;;;;;;;;4971690;28;92781;-81
2023/12/15 12:33:45;;;;;;;;;;;;;;;;;;4994963;28;92591;-82
2023/12/15 12:36:17;;;;;;;6.63;2.03;;;;;;;;;;4999890;28;95096;-81
2023/12/15 12:38:45;;;;;;;7.22;2.00;;;;;;;;;;5001621;28;92330;-81
2023/12/15 12:41:12;;;;;;;5.65;1.98;;;;;;;;;;5000980;28;92132;-81
2023/12/15 12:43:40;;;;;;;;;;;;;;;;;;5014539;28;92707;-82
2023/12/15 12:46:13;;;;;;;6.60;1.65;;;;;;;;;;5003358;28;93026;-82
2023/12/15 12:48:41;;;;;;;4.93;1.73;;;;;;;;;;5003456;28;92740;-81
2023/12/15 12:51:08;;;;;;;;;;;;;;;;;;5030447;28;92854;-82
2023/12/15 12:53:36;;;;;;;7.05;2.17;;;;;;;;;;4989885;28;91483;-81
2023/12/15 12:56:03;;;;;;;6.90;1.83;;;;;;;;;;5004135;28;92121;-81
2023/12/15 12:58:30;;;;;;;;;;;;;;;;;;5001736;28;95340;-81
2023/12/15 13:00:57;;;;;;;4.07;1.50;;;;;;;;;;4984606;28;100154;-82
2023/12/15 13:03:25;;;;;;;6.53;1.77;;;;;;;;;;4985375;28;97426;-81
2023/12/15 13:05:55;;;;;;;6.93;1.90;;;;;;;;;;4979902;28;92056;-81
2023/12/15 13:08:24;;;;;;;5.70;1.80;;;;;;;;;;5011191;28;95283;-81
2023/12/15 13:10:50;;;;;;;5.30;1.70;;;;;;;;;;4980960;28;94941;-82
2023/12/15 13:13:17;;;;;;;6.65;2.05;;;;;;;;;;4981888;28;92301;-81
2023/12/15 13:15:45;;;;;;;5.70;1.80;;;;;;;;;;4996584;28;92704;-81
2023/12/15 13:18:12;;;;;;;5.32;1.70;;;;;;;;;;4986859;28;92022;-83
2023/12/15 13:20:40;;;;;;;6.85;1.90;;;;;;;;;;5014179;28;92467;-82
2023/12/15 13:23:08;;;;;;;;;;;;;;;;;;5017992;28;92482;-83
2023/12/15 13:25:36;;;;;;;6.22;1.73;;;;;;;;;;5020474;28;95231;-81
2023/12/15 13:28:05;;;;;;;4.75;1.60;;;;;;;;;;4978113;28;97335;-82
2023/12/15 13:30:33;;;;;;;7.13;2.08;;;;;;;;;;4980897;28;93226;-81
2023/12/15 13:33:01;;;;;;;6.25;1.80;;;;;;;;;;4993583;28;92537;-81
2023/12/15 13:35:29;;;;;;;4.90;1.60;;;;;;;;;;4984080;28;92184;-82
2023/12/15 13:37:56;;;;;;;5.10;1.80;;;;;;;;;;4981625;28;95056;-81
2023/12/15 13:40:23;;;;;;;5.95;1.90;;;;;;;;;;5013836;28;92145;-81
2023/12/15 13:42:53;;;;;;;5.88;1.80;;;;;;;;;;5022569;27;92430;-84
2023/12/15 13:45:21;;;;;;;5.40;1.75;;;;;;;;;;5021991;27;92629;-82
2023/12/15 13:47:49;;;;;;;5.55;1.65;;;;;;;;;;5004560;28;92672;-81
2023/12/15 13:50:20;;;;;;;5.75;2.00;;;;;;;;;;4996258;28;95354;-82
2023/12/15 13:52:47;;;;;;;5.88;1.70;;;;;;;;;;5000508;28;92521;-81
2023/12/15 13:55:14;;;;;;;5.85;1.70;;;;;;;;;;4999776;28;92309;-81
2023/12/15 13:57:43;;;;;;;3.92;1.33;;;;;;;;;;4998647;28;93872;-81
2023/12/15 14:00:11;;;;;;;5.35;1.58;;;;;;;;;;4983949;28;92467;-82
2023/12/15 14:02:39;;;;;;;7.20;1.80;;;;;;;;;;5002322;28;92425;-81
2023/12/15 14:05:07;;;;;;;4.85;1.77;;;;;;;;;;4999960;28;93204;-81
2023/12/15 14:07:34;;;;;;;4.97;1.52;;;;;;;;;;5018138;28;91663;-81
2023/12/15 14:10:05;;;;;;;4.75;1.60;;;;;;;;;;5024089;28;92114;-82
2023/12/15 14:12:33;;;;;;;6.03;1.80;;;;;;;;;;5020757;28;92300;-81
2023/12/15 14:15:06;;;;;;;4.60;1.55;;;;;;;;;;5002236;28;94915;-82
2023/12/15 14:17:36;;;;;;;5.63;1.55;;;;;;;;;;5020118;28;93086;-82
2023/12/15 14:20:07;;;;;;;4.68;1.60;;;;;;;;;;5001209;28;92747;-82
2023/12/15 14:22:35;;;;;;;5.85;1.70;;;;;;;;;;5020149;28;93784;-81
2023/12/15 14:25:09;;;;;;;4.85;1.40;;;;;;;;;;5003697;28;95256;-81
2023/12/15 14:27:36;;;;;;;5.20;1.40;;;;;;;;;;5021349;28;92311;-81
2023/12/15 14:30:13;;;;;;;4.65;1.60;;;;;;;;;;5001793;28;94989;-80
2023/12/15 14:32:40;;;;;;;4.65;1.65;;;;;;;;;;5023665;28;94393;-81
2023/12/15 14:35:09;;;;;;;;;;;;;;;;;;5002954;28;94194;-82
2023/12/15 14:37:38;;;;;;;4.72;1.55;;;;;;;;;;5022097;28;93270;-81
2023/12/15 14:40:06;;;;;;;4.53;1.40;;;;;;;;;;5008761;28;94769;-82
2023/12/15 14:42:33;;;;;;;4.90;1.60;;;;;;;;;;5021355;27;94775;-82
2023/12/15 14:45:01;;;;;;;4.65;1.38;;;;;;;;;;4999637;28;95372;-81
2023/12/15 14:47:28;;;;;;;5.95;1.70;;;;;;;;;;5002017;28;92060;-81
2023/12/15 14:49:55;;;;;;;4.65;1.50;;;;;;;;;;4979788;28;94679;-81
2023/12/15 14:52:22;;;;;;;4.70;1.65;;;;;;;;;;4984537;28;92260;-81
2023/12/15 14:54:54;;;;;;;5.32;1.42;;;;;;;;;;4980166;28;93374;-82
2023/12/15 14:57:22;;;;;;;3.95;1.30;;;;;;;;;;5011634;28;92169;-82